sensor_id;sensor_type;location;lat;lon;timestamp;temperature;humidity
21439;DHT22;10880;50.302;18.736;2023-07-13T00:02:20;26.50;55.90
21439;DHT22;10880;50.302;18.736;2023-07-13T00:04:47;26.50;56.30
21439;DHT22;10880;50.302;18.736;2023-07-13T00:07:13;26.50;55.90
21439;DHT22;10880;50.302;18.736;2023-07-13T00:09:40;26.50;56.50
21439;DHT22;10880;50.302;18.736;2023-07-13T00:12:23;26.50;56.40
21439;DHT22;10880;50.302;18.736;2023-07-13T00:14:50;26.40;56.90
21439;DHT22;10880;50.302;18.736;2023-07-13T00:17:17;26.40;56.30
21439;DHT22;10880;50.302;18.736;2023-07-13T00:19:43;26.40;56.60
21439;DHT22;10880;50.302;18.736;2023-07-13T00:22:16;26.30;56.70
21439;DHT22;10880;50.302;18.736;2023-07-13T00:24:44;26.30;56.70
21439;DHT22;10880;50.302;18.736;2023-07-13T00:27:11;26.30;56.50
21439;DHT22;10880;50.302;18.736;2023-07-13T00:29:38;26.30;56.60
21439;DHT22;10880;50.302;18.736;2023-07-13T00:32:06;26.20;56.50
21439;DHT22;10880;50.302;18.736;2023-07-13T00:34:37;26.20;56.60
21439;DHT22;10880;50.302;18.736;2023-07-13T00:37:05;26.20;56.60
21439;DHT22;10880;50.302;18.736;2023-07-13T00:39:33;26.20;57.10
21439;DHT22;10880;50.302;18.736;2023-07-13T00:42:02;26.20;57.10
21439;DHT22;10880;50.302;18.736;2023-07-13T00:44:28;26.20;57.10
21439;DHT22;10880;50.302;18.736;2023-07-13T00:46:55;26.10;56.70
21439;DHT22;10880;50.302;18.736;2023-07-13T00:49:27;26.10;56.90
21439;DHT22;10880;50.302;18.736;2023-07-13T00:51:58;26.20;57.10
21439;DHT22;10880;50.302;18.736;2023-07-13T00:54:45;26.10;56.90
21439;DHT22;10880;50.302;18.736;2023-07-13T00:57:17;26.10;57.60
21439;DHT22;10880;50.302;18.736;2023-07-13T00:59:52;26.10;57.50
21439;DHT22;10880;50.302;18.736;2023-07-13T01:02:19;26.10;57.50
21439;DHT22;10880;50.302;18.736;2023-07-13T01:04:46;26.10;57.10
21439;DHT22;10880;50.302;18.736;2023-07-13T01:07:16;26.10;57.20
21439;DHT22;10880;50.302;18.736;2023-07-13T01:09:42;26.00;57.10
21439;DHT22;10880;50.302;18.736;2023-07-13T01:12:11;26.00;57.20
21439;DHT22;10880;50.302;18.736;2023-07-13T01:17:05;26.00;57.00
21439;DHT22;10880;50.302;18.736;2023-07-13T01:19:35;26.00;57.40
21439;DHT22;10880;50.302;18.736;2023-07-13T01:22:14;25.90;57.30
21439;DHT22;10880;50.302;18.736;2023-07-13T01:24:44;26.00;57.40
21439;DHT22;10880;50.302;18.736;2023-07-13T01:27:13;26.00;57.60
21439;DHT22;10880;50.302;18.736;2023-07-13T01:29:43;25.90;58.00
21439;DHT22;10880;50.302;18.736;2023-07-13T01:32:12;25.90;57.70
21439;DHT22;10880;50.302;18.736;2023-07-13T01:34:41;25.90;58.10
21439;DHT22;10880;50.302;18.736;2023-07-13T01:37:13;25.90;58.00
21439;DHT22;10880;50.302;18.736;2023-07-13T01:39:40;25.90;57.60
21439;DHT22;10880;50.302;18.736;2023-07-13T01:42:07;25.90;57.80
21439;DHT22;10880;50.302;18.736;2023-07-13T01:44:33;25.80;58.10
21439;DHT22;10880;50.302;18.736;2023-07-13T01:47:00;25.90;57.90
21439;DHT22;10880;50.302;18.736;2023-07-13T01:49:27;25.80;57.80
21439;DHT22;10880;50.302;18.736;2023-07-13T01:51:56;25.80;57.90
21439;DHT22;10880;50.302;18.736;2023-07-13T01:54:22;25.80;58.30
21439;DHT22;10880;50.302;18.736;2023-07-13T01:56:50;25.80;57.90
21439;DHT22;10880;50.302;18.736;2023-07-13T01:59:17;25.80;58.00
21439;DHT22;10880;50.302;18.736;2023-07-13T02:01:43;25.80;58.30
21439;DHT22;10880;50.302;18.736;2023-07-13T02:04:09;25.80;57.80
21439;DHT22;10880;50.302;18.736;2023-07-13T02:06:37;25.80;58.10
21439;DHT22;10880;50.302;18.736;2023-07-13T02:09:03;25.70;58.10
21439;DHT22;10880;50.302;18.736;2023-07-13T02:11:29;25.70;58.00
21439;DHT22;10880;50.302;18.736;2023-07-13T02:14:00;25.70;58.30
21439;DHT22;10880;50.302;18.736;2023-07-13T02:16:30;25.70;58.60
21439;DHT22;10880;50.302;18.736;2023-07-13T02:19:01;25.70;58.20
21439;DHT22;10880;50.302;18.736;2023-07-13T02:21:30;25.70;58.50
21439;DHT22;10880;50.302;18.736;2023-07-13T02:23:59;25.70;58.30
21439;DHT22;10880;50.302;18.736;2023-07-13T02:26:27;25.70;58.60
21439;DHT22;10880;50.302;18.736;2023-07-13T02:28:54;25.70;58.50
21439;DHT22;10880;50.302;18.736;2023-07-13T02:31:20;25.70;58.40
21439;DHT22;10880;50.302;18.736;2023-07-13T02:33:47;25.70;58.60
21439;DHT22;10880;50.302;18.736;2023-07-13T02:36:16;25.70;58.70
21439;DHT22;10880;50.302;18.736;2023-07-13T02:38:44;25.60;58.50
21439;DHT22;10880;50.302;18.736;2023-07-13T02:41:11;25.60;58.80
21439;DHT22;10880;50.302;18.736;2023-07-13T02:43:42;25.60;58.60
21439;DHT22;10880;50.302;18.736;2023-07-13T02:46:09;25.60;58.80
21439;DHT22;10880;50.302;18.736;2023-07-13T02:48:38;25.50;59.00
21439;DHT22;10880;50.302;18.736;2023-07-13T02:51:08;25.60;58.70
21439;DHT22;10880;50.302;18.736;2023-07-13T02:53:35;25.50;58.60
21439;DHT22;10880;50.302;18.736;2023-07-13T02:56:02;25.60;58.70
21439;DHT22;10880;50.302;18.736;2023-07-13T02:58:29;25.50;58.90
21439;DHT22;10880;50.302;18.736;2023-07-13T03:00:56;25.50;58.60
21439;DHT22;10880;50.302;18.736;2023-07-13T03:03:26;25.50;59.00
21439;DHT22;10880;50.302;18.736;2023-07-13T03:06:03;25.50;58.60
21439;DHT22;10880;50.302;18.736;2023-07-13T03:08:37;25.50;58.60
21439;DHT22;10880;50.302;18.736;2023-07-13T03:11:10;25.50;58.70
21439;DHT22;10880;50.302;18.736;2023-07-13T03:13:41;25.50;58.70
21439;DHT22;10880;50.302;18.736;2023-07-13T03:16:08;25.50;59.20
21439;DHT22;10880;50.302;18.736;2023-07-13T03:18:38;25.50;58.80
21439;DHT22;10880;50.302;18.736;2023-07-13T03:21:10;25.40;58.80
21439;DHT22;10880;50.302;18.736;2023-07-13T03:23:36;25.40;58.90
21439;DHT22;10880;50.302;18.736;2023-07-13T03:26:08;25.40;59.30
21439;DHT22;10880;50.302;18.736;2023-07-13T03:31:18;25.40;59.00
21439;DHT22;10880;50.302;18.736;2023-07-13T03:33:46;25.40;59.70
21439;DHT22;10880;50.302;18.736;2023-07-13T03:36:16;25.40;59.60
21439;DHT22;10880;50.302;18.736;2023-07-13T03:38:47;25.40;59.30
21439;DHT22;10880;50.302;18.736;2023-07-13T03:41:16;25.40;59.40
21439;DHT22;10880;50.302;18.736;2023-07-13T03:43:46;25.40;59.70
21439;DHT22;10880;50.302;18.736;2023-07-13T03:46:16;25.40;59.70
21439;DHT22;10880;50.302;18.736;2023-07-13T03:48:45;25.40;59.80
21439;DHT22;10880;50.302;18.736;2023-07-13T03:51:13;25.40;59.70
21439;DHT22;10880;50.302;18.736;2023-07-13T03:53:44;25.40;59.90
21439;DHT22;10880;50.302;18.736;2023-07-13T03:58:46;25.40;59.30
21439;DHT22;10880;50.302;18.736;2023-07-13T04:01:23;25.40;59.80
21439;DHT22;10880;50.302;18.736;2023-07-13T04:03:53;25.50;59.70
21439;DHT22;10880;50.302;18.736;2023-07-13T04:06:27;25.50;59.60
21439;DHT22;10880;50.302;18.736;2023-07-13T04:09:00;25.50;59.80
21439;DHT22;10880;50.302;18.736;2023-07-13T04:11:29;25.50;59.30
21439;DHT22;10880;50.302;18.736;2023-07-13T04:13:56;25.50;59.80
21439;DHT22;10880;50.302;18.736;2023-07-13T04:16:27;25.60;59.40
21439;DHT22;10880;50.302;18.736;2023-07-13T04:18:55;25.60;59.50
21439;DHT22;10880;50.302;18.736;2023-07-13T04:21:30;25.50;59.70
21439;DHT22;10880;50.302;18.736;2023-07-13T04:23:57;25.50;59.70
21439;DHT22;10880;50.302;18.736;2023-07-13T04:26:23;25.50;59.70
21439;DHT22;10880;50.302;18.736;2023-07-13T04:28:51;25.50;59.40
21439;DHT22;10880;50.302;18.736;2023-07-13T04:31:18;25.50;59.40
21439;DHT22;10880;50.302;18.736;2023-07-13T04:33:44;25.60;59.50
21439;DHT22;10880;50.302;18.736;2023-07-13T04:36:11;25.60;59.50
21439;DHT22;10880;50.302;18.736;2023-07-13T04:38:37;25.60;59.50
21439;DHT22;10880;50.302;18.736;2023-07-13T04:41:05;25.60;59.50
21439;DHT22;10880;50.302;18.736;2023-07-13T04:43:34;25.60;60.20
21439;DHT22;10880;50.302;18.736;2023-07-13T04:46:07;25.60;59.80
21439;DHT22;10880;50.302;18.736;2023-07-13T04:48:34;25.60;60.30
21439;DHT22;10880;50.302;18.736;2023-07-13T04:51:01;25.60;59.90
21439;DHT22;10880;50.302;18.736;2023-07-13T04:53:28;25.60;60.10
21439;DHT22;10880;50.302;18.736;2023-07-13T04:55:55;25.60;60.40
21439;DHT22;10880;50.302;18.736;2023-07-13T04:58:24;25.60;60.60
21439;DHT22;10880;50.302;18.736;2023-07-13T05:00:52;25.60;60.60
21439;DHT22;10880;50.302;18.736;2023-07-13T05:03:19;25.70;60.30
21439;DHT22;10880;50.302;18.736;2023-07-13T05:05:55;25.60;60.10
21439;DHT22;10880;50.302;18.736;2023-07-13T05:08:25;25.70;60.90
21439;DHT22;10880;50.302;18.736;2023-07-13T05:10:52;25.70;60.10
21439;DHT22;10880;50.302;18.736;2023-07-13T05:13:19;25.70;60.50
21439;DHT22;10880;50.302;18.736;2023-07-13T05:15:46;25.70;59.80
21439;DHT22;10880;50.302;18.736;2023-07-13T05:18:13;25.80;60.30
21439;DHT22;10880;50.302;18.736;2023-07-13T05:20:39;25.80;60.50
21439;DHT22;10880;50.302;18.736;2023-07-13T05:23:06;25.80;60.60
21439;DHT22;10880;50.302;18.736;2023-07-13T05:25:32;25.80;59.90
21439;DHT22;10880;50.302;18.736;2023-07-13T05:27:58;25.80;60.00
21439;DHT22;10880;50.302;18.736;2023-07-13T05:30:28;25.90;60.20
21439;DHT22;10880;50.302;18.736;2023-07-13T05:32:54;25.90;60.60
21439;DHT22;10880;50.302;18.736;2023-07-13T05:35:23;25.90;60.40
21439;DHT22;10880;50.302;18.736;2023-07-13T05:37:52;26.00;60.70
21439;DHT22;10880;50.302;18.736;2023-07-13T05:40:19;25.90;60.40
21439;DHT22;10880;50.302;18.736;2023-07-13T05:42:45;26.00;60.40
21439;DHT22;10880;50.302;18.736;2023-07-13T05:45:11;26.10;61.00
21439;DHT22;10880;50.302;18.736;2023-07-13T05:47:38;26.00;60.80
21439;DHT22;10880;50.302;18.736;2023-07-13T05:50:04;26.10;60.90
21439;DHT22;10880;50.302;18.736;2023-07-13T05:52:31;26.00;61.20
21439;DHT22;10880;50.302;18.736;2023-07-13T05:54:58;26.10;60.80
21439;DHT22;10880;50.302;18.736;2023-07-13T05:57:25;26.20;61.00
21439;DHT22;10880;50.302;18.736;2023-07-13T05:59:51;26.20;60.90
21439;DHT22;10880;50.302;18.736;2023-07-13T06:02:17;25.00;59.60
21439;DHT22;10880;50.302;18.736;2023-07-13T06:04:44;26.30;61.10
21439;DHT22;10880;50.302;18.736;2023-07-13T06:07:10;26.30;60.80
21439;DHT22;10880;50.302;18.736;2023-07-13T06:09:41;26.30;61.00
21439;DHT22;10880;50.302;18.736;2023-07-13T06:12:07;26.30;60.50
21439;DHT22;10880;50.302;18.736;2023-07-13T06:14:34;26.30;60.90
21439;DHT22;10880;50.302;18.736;2023-07-13T06:17:00;26.40;60.50
21439;DHT22;10880;50.302;18.736;2023-07-13T06:19:27;26.40;60.70
21439;DHT22;10880;50.302;18.736;2023-07-13T06:21:54;26.50;60.90
21439;DHT22;10880;50.302;18.736;2023-07-13T06:24:22;26.50;60.70
21439;DHT22;10880;50.302;18.736;2023-07-13T06:26:50;26.50;60.90
21439;DHT22;10880;50.302;18.736;2023-07-13T06:29:16;26.50;61.60
21439;DHT22;10880;50.302;18.736;2023-07-13T06:31:43;26.60;61.00
21439;DHT22;10880;50.302;18.736;2023-07-13T06:34:09;26.60;61.00
21439;DHT22;10880;50.302;18.736;2023-07-13T06:36:36;26.60;61.00
21439;DHT22;10880;50.302;18.736;2023-07-13T06:39:06;26.60;61.10
21439;DHT22;10880;50.302;18.736;2023-07-13T06:41:32;26.60;61.40
21439;DHT22;10880;50.302;18.736;2023-07-13T06:44:00;26.70;61.30
21439;DHT22;10880;50.302;18.736;2023-07-13T06:46:28;26.70;60.80
21439;DHT22;10880;50.302;18.736;2023-07-13T06:48:55;26.70;60.70
21439;DHT22;10880;50.302;18.736;2023-07-13T06:51:21;26.80;61.40
21439;DHT22;10880;50.302;18.736;2023-07-13T06:53:48;26.80;60.90
21439;DHT22;10880;50.302;18.736;2023-07-13T06:56:16;26.80;61.00
21439;DHT22;10880;50.302;18.736;2023-07-13T06:58:42;26.80;60.30
21439;DHT22;10880;50.302;18.736;2023-07-13T07:01:09;26.90;60.40
21439;DHT22;10880;50.302;18.736;2023-07-13T07:03:35;26.90;60.50
21439;DHT22;10880;50.302;18.736;2023-07-13T07:06:15;26.90;60.60
21439;DHT22;10880;50.302;18.736;2023-07-13T07:08:42;26.90;61.30
21439;DHT22;10880;50.302;18.736;2023-07-13T07:11:12;26.90;60.20
21439;DHT22;10880;50.302;18.736;2023-07-13T07:13:39;26.90;61.10
21439;DHT22;10880;50.302;18.736;2023-07-13T07:16:06;26.90;60.70
21439;DHT22;10880;50.302;18.736;2023-07-13T07:18:33;26.90;60.30
21439;DHT22;10880;50.302;18.736;2023-07-13T07:20:59;26.90;60.60
21439;DHT22;10880;50.302;18.736;2023-07-13T07:23:26;26.90;60.10
21439;DHT22;10880;50.302;18.736;2023-07-13T07:25:56;26.90;60.50
21439;DHT22;10880;50.302;18.736;2023-07-13T07:28:23;26.90;60.70
21439;DHT22;10880;50.302;18.736;2023-07-13T07:30:52;26.90;60.20
21439;DHT22;10880;50.302;18.736;2023-07-13T07:33:19;26.90;60.50
21439;DHT22;10880;50.302;18.736;2023-07-13T07:35:46;26.90;60.20
21439;DHT22;10880;50.302;18.736;2023-07-13T07:38:12;26.90;60.30
21439;DHT22;10880;50.302;18.736;2023-07-13T07:40:40;26.90;59.90
21439;DHT22;10880;50.302;18.736;2023-07-13T07:43:08;26.90;60.90
21439;DHT22;10880;50.302;18.736;2023-07-13T07:45:36;26.90;60.90
21439;DHT22;10880;50.302;18.736;2023-07-13T07:48:04;26.90;60.50
21439;DHT22;10880;50.302;18.736;2023-07-13T07:50:31;26.90;60.80
21439;DHT22;10880;50.302;18.736;2023-07-13T07:52:59;26.90;60.80
21439;DHT22;10880;50.302;18.736;2023-07-13T07:55:25;26.90;60.50
21439;DHT22;10880;50.302;18.736;2023-07-13T07:57:52;26.90;60.50
21439;DHT22;10880;50.302;18.736;2023-07-13T08:00:19;26.90;60.30
21439;DHT22;10880;50.302;18.736;2023-07-13T08:02:47;27.00;60.30
21439;DHT22;10880;50.302;18.736;2023-07-13T08:05:14;26.80;60.30
21439;DHT22;10880;50.302;18.736;2023-07-13T08:07:41;26.90;60.60
21439;DHT22;10880;50.302;18.736;2023-07-13T08:10:08;26.90;60.70
21439;DHT22;10880;50.302;18.736;2023-07-13T08:12:36;26.90;60.60
21439;DHT22;10880;50.302;18.736;2023-07-13T08:15:04;26.90;60.80
21439;DHT22;10880;50.302;18.736;2023-07-13T08:17:33;26.90;60.90
21439;DHT22;10880;50.302;18.736;2023-07-13T08:20:01;27.00;61.00
21439;DHT22;10880;50.302;18.736;2023-07-13T08:22:28;27.00;60.90
21439;DHT22;10880;50.302;18.736;2023-07-13T08:24:56;27.00;60.90
21439;DHT22;10880;50.302;18.736;2023-07-13T08:27:25;27.10;61.30
21439;DHT22;10880;50.302;18.736;2023-07-13T08:29:52;27.10;61.00
21439;DHT22;10880;50.302;18.736;2023-07-13T08:32:20;27.10;61.10
21439;DHT22;10880;50.302;18.736;2023-07-13T08:34:47;27.20;60.90
21439;DHT22;10880;50.302;18.736;2023-07-13T08:37:15;27.20;60.50
21439;DHT22;10880;50.302;18.736;2023-07-13T08:39:43;27.20;61.60
21439;DHT22;10880;50.302;18.736;2023-07-13T08:45:14;27.30;61.10
21439;DHT22;10880;50.302;18.736;2023-07-13T08:48:02;27.30;61.70
21439;DHT22;10880;50.302;18.736;2023-07-13T08:50:35;27.40;61.50
21439;DHT22;10880;50.302;18.736;2023-07-13T08:53:06;27.30;61.00
21439;DHT22;10880;50.302;18.736;2023-07-13T08:55:36;27.40;61.00
21439;DHT22;10880;50.302;18.736;2023-07-13T08:58:15;27.40;60.20
21439;DHT22;10880;50.302;18.736;2023-07-13T09:01:06;27.40;60.90
21439;DHT22;10880;50.302;18.736;2023-07-13T09:03:41;27.40;60.70
21439;DHT22;10880;50.302;18.736;2023-07-13T09:06:12;27.40;60.40
21439;DHT22;10880;50.302;18.736;2023-07-13T09:09:01;27.40;60.20
21439;DHT22;10880;50.302;18.736;2023-07-13T09:16:46;27.30;60.00
21439;DHT22;10880;50.302;18.736;2023-07-13T09:19:21;27.20;59.10
21439;DHT22;10880;50.302;18.736;2023-07-13T09:21:53;27.20;59.10
21439;DHT22;10880;50.302;18.736;2023-07-13T09:24:28;27.20;59.70
21439;DHT22;10880;50.302;18.736;2023-07-13T09:26:58;27.20;59.60
21439;DHT22;10880;50.302;18.736;2023-07-13T09:29:33;27.20;58.90
21439;DHT22;10880;50.302;18.736;2023-07-13T09:32:06;27.10;58.70
21439;DHT22;10880;50.302;18.736;2023-07-13T09:34:35;27.00;58.50
21439;DHT22;10880;50.302;18.736;2023-07-13T09:37:02;27.00;58.40
21439;DHT22;10880;50.302;18.736;2023-07-13T09:39:37;26.90;58.70
21439;DHT22;10880;50.302;18.736;2023-07-13T09:42:19;26.90;58.60
21439;DHT22;10880;50.302;18.736;2023-07-13T09:44:58;26.90;58.60
21439;DHT22;10880;50.302;18.736;2023-07-13T09:47:41;26.80;58.40
21439;DHT22;10880;50.302;18.736;2023-07-13T09:50:14;26.70;57.90
21439;DHT22;10880;50.302;18.736;2023-07-13T09:52:46;26.60;57.40
21439;DHT22;10880;50.302;18.736;2023-07-13T09:55:36;26.50;58.00
21439;DHT22;10880;50.302;18.736;2023-07-13T09:58:04;26.40;57.90
21439;DHT22;10880;50.302;18.736;2023-07-13T10:00:33;26.20;57.50
21439;DHT22;10880;50.302;18.736;2023-07-13T10:05:26;26.10;57.20
21439;DHT22;10880;50.302;18.736;2023-07-13T10:07:55;25.90;57.00
21439;DHT22;10880;50.302;18.736;2023-07-13T10:10:23;25.90;57.40
21439;DHT22;10880;50.302;18.736;2023-07-13T10:12:50;25.80;57.20
21439;DHT22;10880;50.302;18.736;2023-07-13T10:15:23;25.70;57.50
21439;DHT22;10880;50.302;18.736;2023-07-13T10:17:53;25.60;57.50
21439;DHT22;10880;50.302;18.736;2023-07-13T10:20:21;25.50;57.40
21439;DHT22;10880;50.302;18.736;2023-07-13T10:23:04;25.40;58.50
21439;DHT22;10880;50.302;18.736;2023-07-13T10:25:38;25.40;57.60
21439;DHT22;10880;50.302;18.736;2023-07-13T10:28:28;25.30;57.80
21439;DHT22;10880;50.302;18.736;2023-07-13T10:30:59;25.30;58.40
21439;DHT22;10880;50.302;18.736;2023-07-13T10:33:26;25.20;58.00
21439;DHT22;10880;50.302;18.736;2023-07-13T10:36:03;25.10;58.20
21439;DHT22;10880;50.302;18.736;2023-07-13T10:38:32;25.10;58.70
21439;DHT22;10880;50.302;18.736;2023-07-13T10:41:19;25.10;58.70
21439;DHT22;10880;50.302;18.736;2023-07-13T10:43:51;25.10;58.90
21439;DHT22;10880;50.302;18.736;2023-07-13T10:46:21;25.00;58.50
21439;DHT22;10880;50.302;18.736;2023-07-13T10:48:54;25.00;58.70
21439;DHT22;10880;50.302;18.736;2023-07-13T10:51:22;24.90;58.60
21439;DHT22;10880;50.302;18.736;2023-07-13T10:54:14;24.90;58.80
21439;DHT22;10880;50.302;18.736;2023-07-13T10:56:46;24.80;58.80
21439;DHT22;10880;50.302;18.736;2023-07-13T11:06:48;24.80;59.30
21439;DHT22;10880;50.302;18.736;2023-07-13T11:09:40;24.90;59.40
21439;DHT22;10880;50.302;18.736;2023-07-13T11:12:28;24.80;60.00
21439;DHT22;10880;50.302;18.736;2023-07-13T11:20:23;24.80;59.70
21439;DHT22;10880;50.302;18.736;2023-07-13T11:23:31;24.80;60.40
21439;DHT22;10880;50.302;18.736;2023-07-13T11:26:00;24.90;60.00
21439;DHT22;10880;50.302;18.736;2023-07-13T11:28:30;24.90;60.00
21439;DHT22;10880;50.302;18.736;2023-07-13T11:31:01;24.90;60.10
21439;DHT22;10880;50.302;18.736;2023-07-13T11:36:16;24.90;60.20
21439;DHT22;10880;50.302;18.736;2023-07-13T11:39:11;24.90;60.90
21439;DHT22;10880;50.302;18.736;2023-07-13T11:41:53;24.90;61.00
21439;DHT22;10880;50.302;18.736;2023-07-13T11:44:23;25.00;61.00
21439;DHT22;10880;50.302;18.736;2023-07-13T11:46:54;24.90;60.90
21439;DHT22;10880;50.302;18.736;2023-07-13T11:49:25;25.00;60.60
21439;DHT22;10880;50.302;18.736;2023-07-13T11:51:53;25.00;61.10
21439;DHT22;10880;50.302;18.736;2023-07-13T11:56:58;25.10;60.70
21439;DHT22;10880;50.302;18.736;2023-07-13T11:59:27;25.00;61.30
21439;DHT22;10880;50.302;18.736;2023-07-13T12:01:55;25.10;61.10
21439;DHT22;10880;50.302;18.736;2023-07-13T12:04:31;25.10;61.50
21439;DHT22;10880;50.302;18.736;2023-07-13T12:07:07;25.10;61.50
21439;DHT22;10880;50.302;18.736;2023-07-13T12:09:35;25.10;61.70
21439;DHT22;10880;50.302;18.736;2023-07-13T12:12:03;25.10;61.30
21439;DHT22;10880;50.302;18.736;2023-07-13T12:14:33;25.20;61.30
21439;DHT22;10880;50.302;18.736;2023-07-13T12:16:59;25.20;61.00
21439;DHT22;10880;50.302;18.736;2023-07-13T12:19:27;25.20;60.80
21439;DHT22;10880;50.302;18.736;2023-07-13T12:21:56;25.30;61.10
21439;DHT22;10880;50.302;18.736;2023-07-13T12:24:24;25.30;61.10
21439;DHT22;10880;50.302;18.736;2023-07-13T12:27:02;25.20;61.60
21439;DHT22;10880;50.302;18.736;2023-07-13T12:29:31;25.30;61.90
21439;DHT22;10880;50.302;18.736;2023-07-13T12:31:58;25.30;61.70
21439;DHT22;10880;50.302;18.736;2023-07-13T12:34:26;25.30;61.60
21439;DHT22;10880;50.302;18.736;2023-07-13T12:45:36;25.40;62.30
21439;DHT22;10880;50.302;18.736;2023-07-13T12:47:47;25.50;62.30
21439;DHT22;10880;50.302;18.736;2023-07-13T12:50:20;25.50;62.10
21439;DHT22;10880;50.302;18.736;2023-07-13T12:53:02;25.50;62.30
21439;DHT22;10880;50.302;18.736;2023-07-13T12:55:42;25.50;62.40
21439;DHT22;10880;50.302;18.736;2023-07-13T12:58:20;25.60;62.30
21439;DHT22;10880;50.302;18.736;2023-07-13T13:00:51;25.60;62.20
21439;DHT22;10880;50.302;18.736;2023-07-13T13:04:00;25.70;62.20
21439;DHT22;10880;50.302;18.736;2023-07-13T13:06:28;25.70;62.50
21439;DHT22;10880;50.302;18.736;2023-07-13T13:08:57;25.70;61.50
21439;DHT22;10880;50.302;18.736;2023-07-13T13:11:25;25.70;62.10
21439;DHT22;10880;50.302;18.736;2023-07-13T13:13:52;25.80;61.50
21439;DHT22;10880;50.302;18.736;2023-07-13T13:16:32;25.80;62.20
21439;DHT22;10880;50.302;18.736;2023-07-13T13:19:05;25.80;62.10
21439;DHT22;10880;50.302;18.736;2023-07-13T13:21:36;25.80;62.10
21439;DHT22;10880;50.302;18.736;2023-07-13T13:24:26;25.90;61.70
21439;DHT22;10880;50.302;18.736;2023-07-13T13:26:55;25.80;62.30
21439;DHT22;10880;50.302;18.736;2023-07-13T13:29:25;25.90;62.20
21439;DHT22;10880;50.302;18.736;2023-07-13T13:31:53;25.90;61.70
21439;DHT22;10880;50.302;18.736;2023-07-13T13:34:21;26.00;61.70
21439;DHT22;10880;50.302;18.736;2023-07-13T13:36:50;26.00;62.30
21439;DHT22;10880;50.302;18.736;2023-07-13T13:39:23;26.00;62.20
21439;DHT22;10880;50.302;18.736;2023-07-13T13:41:52;26.00;62.10
21439;DHT22;10880;50.302;18.736;2023-07-13T13:44:21;26.00;61.80
21439;DHT22;10880;50.302;18.736;2023-07-13T13:46:52;26.00;61.20
21439;DHT22;10880;50.302;18.736;2023-07-13T13:49:23;26.00;61.90
21439;DHT22;10880;50.302;18.736;2023-07-13T13:51:51;26.10;61.30
21439;DHT22;10880;50.302;18.736;2023-07-13T13:54:19;26.10;61.80
21439;DHT22;10880;50.302;18.736;2023-07-13T13:56:48;26.10;61.80
21439;DHT22;10880;50.302;18.736;2023-07-13T13:59:15;26.10;61.30
21439;DHT22;10880;50.302;18.736;2023-07-13T14:01:45;26.10;61.30
21439;DHT22;10880;50.302;18.736;2023-07-13T14:04:19;26.10;61.90
21439;DHT22;10880;50.302;18.736;2023-07-13T14:06:48;26.10;61.80
21439;DHT22;10880;50.302;18.736;2023-07-13T14:09:17;26.20;61.20
21439;DHT22;10880;50.302;18.736;2023-07-13T14:11:46;26.10;61.70
21439;DHT22;10880;50.302;18.736;2023-07-13T14:14:20;26.20;61.10
21439;DHT22;10880;50.302;18.736;2023-07-13T14:16:49;26.20;61.70
21439;DHT22;10880;50.302;18.736;2023-07-13T14:19:19;26.20;61.60
21439;DHT22;10880;50.302;18.736;2023-07-13T14:21:46;26.20;60.80
21439;DHT22;10880;50.302;18.736;2023-07-13T14:24:13;26.20;61.10
21439;DHT22;10880;50.302;18.736;2023-07-13T14:26:41;26.30;60.80
21439;DHT22;10880;50.302;18.736;2023-07-13T14:29:15;26.20;61.30
21439;DHT22;10880;50.302;18.736;2023-07-13T14:31:44;26.20;62.10
21439;DHT22;10880;50.302;18.736;2023-07-13T14:34:11;26.30;60.80
21439;DHT22;10880;50.302;18.736;2023-07-13T14:36:44;26.30;61.30
21439;DHT22;10880;50.302;18.736;2023-07-13T14:39:17;26.30;60.70
21439;DHT22;10880;50.302;18.736;2023-07-13T14:41:44;26.30;61.40
21439;DHT22;10880;50.302;18.736;2023-07-13T14:44:12;26.30;60.40
21439;DHT22;10880;50.302;18.736;2023-07-13T14:46:39;26.30;61.10
21439;DHT22;10880;50.302;18.736;2023-07-13T14:49:32;26.30;60.20
21439;DHT22;10880;50.302;18.736;2023-07-13T14:52:15;26.30;61.10
21439;DHT22;10880;50.302;18.736;2023-07-13T14:54:42;26.30;60.30
21439;DHT22;10880;50.302;18.736;2023-07-13T14:57:11;26.30;60.30
21439;DHT22;10880;50.302;18.736;2023-07-13T14:59:38;26.30;60.30
21439;DHT22;10880;50.302;18.736;2023-07-13T15:02:27;26.30;60.30
21439;DHT22;10880;50.302;18.736;2023-07-13T15:04:55;26.40;61.10
21439;DHT22;10880;50.302;18.736;2023-07-13T15:07:22;26.30;60.40
21439;DHT22;10880;50.302;18.736;2023-07-13T15:09:49;26.30;60.60
21439;DHT22;10880;50.302;18.736;2023-07-13T15:12:17;26.30;60.50
21439;DHT22;10880;50.302;18.736;2023-07-13T15:14:43;26.30;60.40
21439;DHT22;10880;50.302;18.736;2023-07-13T15:17:35;26.30;60.30
21439;DHT22;10880;50.302;18.736;2023-07-13T15:20:27;26.30;61.10
21439;DHT22;10880;50.302;18.736;2023-07-13T15:22:59;26.30;61.00
21439;DHT22;10880;50.302;18.736;2023-07-13T15:25:27;26.30;61.00
21439;DHT22;10880;50.302;18.736;2023-07-13T15:27:55;26.30;60.90
21439;DHT22;10880;50.302;18.736;2023-07-13T15:30:27;26.40;60.30
21439;DHT22;10880;50.302;18.736;2023-07-13T15:32:56;26.40;60.30
21439;DHT22;10880;50.302;18.736;2023-07-13T15:35:26;26.40;61.00
21439;DHT22;10880;50.302;18.736;2023-07-13T15:37:53;26.40;60.80
21439;DHT22;10880;50.302;18.736;2023-07-13T15:40:19;26.40;60.70
21439;DHT22;10880;50.302;18.736;2023-07-13T15:42:48;26.40;60.30
21439;DHT22;10880;50.302;18.736;2023-07-13T15:45:20;26.40;60.00
21439;DHT22;10880;50.302;18.736;2023-07-13T15:47:47;26.40;60.30
21439;DHT22;10880;50.302;18.736;2023-07-13T15:50:16;26.40;59.70
21439;DHT22;10880;50.302;18.736;2023-07-13T15:52:44;26.40;59.50
21439;DHT22;10880;50.302;18.736;2023-07-13T15:55:13;26.40;60.30
21439;DHT22;10880;50.302;18.736;2023-07-13T15:57:44;26.40;59.60
21439;DHT22;10880;50.302;18.736;2023-07-13T16:00:24;26.30;59.40
21439;DHT22;10880;50.302;18.736;2023-07-13T16:02:56;26.30;59.50
21439;DHT22;10880;50.302;18.736;2023-07-13T16:05:23;26.30;59.40
21439;DHT22;10880;50.302;18.736;2023-07-13T16:07:57;26.30;59.50
21439;DHT22;10880;50.302;18.736;2023-07-13T16:10:36;26.30;60.20
21439;DHT22;10880;50.302;18.736;2023-07-13T16:13:05;26.30;59.40
21439;DHT22;10880;50.302;18.736;2023-07-13T16:15:31;26.30;59.30
21439;DHT22;10880;50.302;18.736;2023-07-13T16:17:58;26.30;59.30
21439;DHT22;10880;50.302;18.736;2023-07-13T16:20:25;26.40;59.20